Time;durP1;ratioP1;P1;durP2;ratioP2;P2;SDS_P1;SDS_P2;PMS_P1;PMS_P2;Temp;Humidity;BMP_temperature;BMP_pressure;BME280_temperature;BME280_humidity;BME280_pressure;Samples;Min_cycle;Max_cycle;Signal;HPM_P1;HPM_P2
2023/12/25 00:00:31;;;;;;;1.17;0.67;;;6.90;99.90;6.10;97254;;;;570950;249;24072;-79
2023/12/25 00:02:59;;;;;;;3.33;0.80;;;6.90;99.90;6.00;97261;;;;579706;248;24113;-78
2023/12/25 00:05:27;;;;;;;3.53;0.90;;;6.80;99.90;6.00;97265;;;;579207;248;24395;-78
2023/12/25 00:07:56;;;;;;;3.60;0.67;;;6.80;99.90;6.00;97266;;;;576293;249;24074;-80
2023/12/25 00:10:24;;;;;;;0.60;0.50;;;6.80;99.90;6.00;97274;;;;579471;248;24091;-79
2023/12/25 00:12:52;;;;;;;0.30;0.30;;;6.80;99.90;6.00;97283;;;;576249;249;24095;-80
2023/12/25 00:15:20;;;;;;;0.73;0.70;;;6.70;99.90;6.00;97298;;;;579471;248;24087;-79
2023/12/25 00:17:48;;;;;;;3.97;0.90;;;6.80;99.90;6.00;97303;;;;575434;249;24092;-79
2023/12/25 00:20:16;;;;;;;1.43;0.57;;;6.80;99.90;6.00;97294;;;;578927;248;25134;-79
2023/12/25 00:22:44;;;;;;;1.70;0.30;;;6.80;99.90;6.00;97322;;;;576255;249;24085;-79
2023/12/25 00:25:12;;;;;;;4.57;0.80;;;6.80;99.90;6.00;97303;;;;571350;247;25138;-79
2023/12/25 00:27:40;;;;;;;0.83;0.73;;;6.80;99.90;6.10;97304;;;;575635;249;24098;-80
2023/12/25 00:30:09;;;;;;;0.77;0.57;;;6.80;99.90;6.00;97305;;;;578905;248;24110;-78
2023/12/25 00:32:37;;;;;;;4.43;1.07;;;6.80;99.90;6.00;97312;;;;580030;248;24145;-79
2023/12/25 00:35:05;;;;;;;0.30;0.30;;;6.80;99.90;5.90;97303;;;;575713;249;24096;-79
2023/12/25 00:37:33;;;;;;;4.43;0.90;;;6.70;99.90;6.00;97307;;;;573835;244;35215;-80
2023/12/25 00:40:01;;;;;;;3.27;1.03;;;6.70;99.90;6.00;97318;;;;575710;249;24117;-80
2023/12/25 00:42:29;;;;;;;1.17;0.53;;;6.80;99.90;6.00;97323;;;;578889;248;24095;-81
2023/12/25 00:44:57;;;;;;;2.10;0.63;;;6.80;99.90;6.10;97320;;;;575524;249;24436;-80
2023/12/25 00:47:26;;;;;;;0.50;0.50;;;6.90;99.90;6.10;97338;;;;578231;248;24089;-79
2023/12/25 00:49:54;;;;;;;3.83;0.77;;;6.90;99.90;6.10;97334;;;;575508;249;24101;-78
2023/12/25 00:52:22;;;;;;;0.80;0.50;;;6.90;99.90;6.10;97339;;;;579213;248;24084;-78
2023/12/25 00:54:49;;;;;;;1.57;1.47;;;6.90;99.90;6.10;97348;;;;576000;249;24126;-79
2023/12/25 00:57:17;;;;;;;0.60;0.60;;;6.90;99.90;6.20;97351;;;;579009;248;24105;-79
2023/12/25 00:59:46;;;;;;;1.53;0.83;;;7.00;99.90;6.20;97343;;;;575925;247;24090;-79
2023/12/25 01:02:14;;;;;;;0.27;0.23;;;7.00;99.90;6.20;97344;;;;581391;247;24102;-79
2023/12/25 01:04:42;;;;;;;8.40;0.67;;;7.00;99.90;6.20;97352;;;;576577;248;24118;-79
2023/12/25 01:07:10;;;;;;;5.30;1.33;;;7.00;99.90;6.20;97361;;;;579033;247;24092;-79
2023/12/25 01:09:38;;;;;;;3.60;1.43;;;7.10;99.90;6.30;97375;;;;576314;249;24332;-78
2023/12/25 01:12:06;;;;;;;2.97;0.63;;;7.10;99.90;6.30;97361;;;;579369;248;24118;-79
2023/12/25 01:14:34;;;;;;;2.90;0.50;;;7.10;99.90;6.30;97367;;;;576028;249;24123;-79
2023/12/25 01:17:03;;;;;;;2.00;0.53;;;7.10;99.90;6.30;97366;;;;579444;247;24098;-78
2023/12/25 01:19:31;;;;;;;3.70;1.03;;;7.10;99.90;6.20;97370;;;;575741;249;24076;-79
2023/12/25 01:21:59;;;;;;;1.70;0.60;;;7.10;99.90;6.20;97377;;;;579493;248;24077;-78
2023/12/25 01:24:27;;;;;;;2.13;0.40;;;7.00;99.90;6.10;97366;;;;575720;249;24113;-78
2023/12/25 01:26:54;;;;;;;3.40;0.37;;;7.00;99.90;6.10;97379;;;;579285;247;24104;-78
2023/12/25 01:29:23;;;;;;;4.63;1.50;;;6.90;99.90;6.00;97388;;;;570457;249;35255;-78
2023/12/25 01:31:51;;;;;;;1.33;0.60;;;6.90;99.90;6.00;97389;;;;578471;248;24151;-80
2023/12/25 01:34:20;;;;;;;3.13;0.73;;;6.80;99.90;6.00;97379;;;;575817;249;24073;-80
2023/12/25 01:36:48;;;;;;;0.63;0.57;;;6.80;99.90;6.00;97392;;;;578911;248;25137;-79
2023/12/25 01:39:15;;;;;;;0.40;0.33;;;6.80;99.90;6.00;97380;;;;578899;248;24093;-79
2023/12/25 01:41:43;;;;;;;4.27;1.10;;;6.70;99.90;6.00;97398;;;;573841;248;35331;-78
2023/12/25 01:44:12;;;;;;;5.97;0.73;;;6.80;99.90;6.00;97390;;;;575520;249;24085;-78
2023/12/25 01:46:43;;;;;;;1.57;1.47;;;6.80;99.90;6.00;97385;;;;578823;248;24111;-79
2023/12/25 01:49:08;;;;;;;12.87;0.93;;;6.80;99.90;6.00;97399;;;;574739;249;24121;-78
2023/12/25 01:51:36;;;;;;;2.50;0.80;;;6.80;99.90;5.90;97397;;;;579188;248;24092;-80
2023/12/25 01:54:06;;;;;;;1.17;0.40;;;6.80;99.90;5.90;97393;;;;575512;249;24081;-80
2023/12/25 01:56:31;;;;;;;0.87;0.60;;;6.70;99.90;5.80;97413;;;;571733;248;24150;-77
2023/12/25 01:59:02;;;;;;;1.30;0.73;;;6.60;99.90;5.80;97402;;;;570488;249;24093;-79
2023/12/25 02:01:28;;;;;;;2.60;0.93;;;6.60;99.90;5.70;97401;;;;579085;247;24087;-78
2023/12/25 02:03:57;;;;;;;1.60;0.83;;;6.50;99.90;5.70;97422;;;;575993;249;25156;-79
2023/12/25 02:06:25;;;;;;;1.50;0.20;;;6.50;99.90;5.70;97410;;;;574039;248;24076;-78
2023/12/25 02:08:56;;;;;;;1.87;0.40;;;6.50;99.90;5.70;97421;;;;573892;249;24095;-79
2023/12/25 02:11:21;;;;;;;0.97;0.50;;;6.50;99.90;5.80;97426;;;;572632;245;24058;-79
2023/12/25 02:13:48;;;;;;;0.40;0.40;;;6.60;99.90;5.90;97419;;;;586506;243;24113;-78
2023/12/25 02:16:20;;;;;;;2.07;0.80;;;6.70;99.90;5.90;97425;;;;572847;245;24051;-78
2023/12/25 02:18:45;;;;;;;1.10;0.90;;;6.70;99.90;6.00;97419;;;;571744;247;24159;-78
2023/12/25 02:21:14;;;;;;;4.63;1.50;;;6.80;99.90;6.00;97431;;;;578524;242;35206;-77
2023/12/25 02:23:41;;;;;;;6.27;2.23;;;6.80;99.90;6.00;97428;;;;572105;247;24146;-78
2023/12/25 02:26:09;;;;;;;3.00;0.30;;;6.80;99.90;6.00;97440;;;;565292;251;24238;-78
2023/12/25 02:28:37;;;;;;;5.07;1.30;;;6.80;99.90;5.90;97436;;;;561016;250;24115;-79
2023/12/25 02:31:05;;;;;;;4.20;1.37;;;6.80;99.90;6.00;97422;;;;562851;250;24106;-78
2023/12/25 02:33:34;;;;;;;6.90;1.87;;;6.70;99.90;5.90;97424;;;;571492;248;24069;-78
2023/12/25 02:36:02;;;;;;;0.77;0.30;;;6.70;99.90;5.90;97427;;;;562844;250;24106;-79
2023/12/25 02:38:30;;;;;;;9.47;1.20;;;6.70;99.90;5.90;97427;;;;576385;249;24076;-80
2023/12/25 02:40:58;;;;;;;12.30;1.90;;;6.70;99.90;5.90;97434;;;;565754;250;24111;-79
2023/12/25 02:43:26;;;;;;;5.57;1.10;;;6.70;99.90;5.90;97440;;;;565697;250;24134;-79
2023/12/25 02:45:54;;;;;;;0.90;0.80;;;6.70;99.90;5.90;97449;;;;565869;250;24111;-79
2023/12/25 02:48:22;;;;;;;5.17;1.73;;;6.70;99.90;6.00;97435;;;;565843;250;24078;-78
2023/12/25 02:50:51;;;;;;;7.50;1.63;;;6.80;99.90;6.00;97450;;;;573889;247;24082;-78
2023/12/25 02:53:18;;;;;;;3.70;1.03;;;6.80;99.90;6.00;97447;;;;573989;247;24087;-77
2023/12/25 02:55:47;;;;;;;9.40;1.80;;;6.90;99.90;6.00;97450;;;;567216;251;24111;-78
2023/12/25 02:58:14;;;;;;;13.67;1.20;;;6.90;99.90;6.00;97453;;;;579862;248;24120;-78
2023/12/25 03:00:42;;;;;;;2.53;0.87;;;6.90;99.90;6.10;97454;;;;573435;247;24042;-79
2023/12/25 03:03:11;;;;;;;8.10;1.50;;;7.00;99.90;6.20;97450;;;;572152;249;24111;-78
2023/12/25 03:05:40;;;;;;;3.20;0.77;;;7.00;99.90;6.20;97450;;;;571421;248;24079;-78
2023/12/25 03:08:07;;;;;;;11.50;3.20;;;7.00;99.90;6.20;97449;;;;561843;253;24089;-79
2023/12/25 03:10:34;;;;;;;2.33;1.13;;;7.00;99.90;6.20;97462;;;;554744;257;24133;-80
2023/12/25 03:13:02;;;;;;;9.77;1.30;;;7.20;99.90;6.20;97448;;;;561333;254;24142;-79
2023/12/25 03:15:31;;;;;;;9.37;2.17;;;7.10;99.90;6.20;97459;;;;561855;250;24101;-80
2023/12/25 03:17:59;;;;;;;7.10;1.57;;;7.00;99.90;6.20;97450;;;;571825;251;24161;-79
2023/12/25 03:20:28;;;;;;;7.70;1.47;;;7.10;99.90;6.20;97461;;;;572984;246;24122;-80
2023/12/25 03:22:56;;;;;;;0.77;0.50;;;7.00;99.90;6.20;97457;;;;562239;249;24167;-78
2023/12/25 03:25:23;;;;;;;7.57;1.40;;;7.00;99.90;6.20;97471;;;;573707;250;24126;-79
2023/12/25 03:27:51;;;;;;;12.43;2.47;;;7.00;99.90;6.20;97460;;;;573015;251;24191;-79
2023/12/25 03:30:19;;;;;;;11.33;1.73;;;7.00;99.90;6.10;97466;;;;572742;251;24118;-81
2023/12/25 03:32:47;;;;;;;0.77;0.37;;;7.00;99.90;6.10;97470;;;;572277;251;24133;-80
2023/12/25 03:35:15;;;;;;;6.20;0.63;;;6.90;99.90;6.10;97474;;;;572566;251;24135;-79
2023/12/25 03:37:43;;;;;;;1.23;1.13;;;6.80;99.90;6.00;97475;;;;572685;251;24123;-80
2023/12/25 03:40:12;;;;;;;7.83;1.90;;;6.80;99.90;6.00;97483;;;;567672;251;35519;-78
2023/12/25 03:42:40;;;;;;;8.50;1.80;;;6.80;99.90;6.00;97479;;;;572218;251;24165;-79
2023/12/25 03:45:07;;;;;;;8.30;1.83;;;6.80;99.90;6.00;97474;;;;572363;246;25143;-79
2023/12/25 03:47:35;;;;;;;4.10;1.33;;;6.80;99.90;6.00;97487;;;;571792;248;24121;-80
2023/12/25 03:50:03;;;;;;;8.80;2.07;;;6.80;99.90;6.00;97485;;;;571868;251;24158;-78
2023/12/25 03:52:32;;;;;;;11.23;1.50;;;6.80;99.90;6.00;97468;;;;578495;242;24151;-78
2023/12/25 03:55:00;;;;;;;0.93;0.43;;;6.80;99.90;6.00;97458;;;;577782;242;24106;-79
2023/12/25 03:57:28;;;;;;;0.77;0.60;;;6.80;99.90;5.90;97466;;;;594133;242;24058;-78
2023/12/25 03:59:56;;;;;;;16.53;2.37;;;6.70;99.90;5.90;97457;;;;594029;242;24066;-78
2023/12/25 04:02:23;;;;;;;5.27;1.77;;;6.70;99.90;5.80;97449;;;;593181;242;24084;-79
2023/12/25 04:04:52;;;;;;;7.90;1.40;;;6.70;99.90;5.80;97461;;;;592841;242;24113;-78
2023/12/25 04:07:20;;;;;;;1.90;0.63;;;6.60;99.90;5.80;97465;;;;586092;242;24054;-79
2023/12/25 04:09:49;;;;;;;5.87;1.50;;;6.60;99.90;5.80;97465;;;;593177;242;24077;-79
2023/12/25 04:12:17;;;;;;;3.20;1.30;;;6.60;99.90;5.80;97459;;;;593285;242;24073;-78
2023/12/25 04:14:44;;;;;;;4.73;0.80;;;6.70;99.90;5.80;97472;;;;592686;242;24058;-78
2023/12/25 04:17:12;;;;;;;4.13;1.13;;;6.70;99.90;5.90;97457;;;;593198;242;24055;-79
2023/12/25 04:19:40;;;;;;;6.17;0.73;;;6.70;99.90;5.90;97454;;;;593104;242;24113;-78
2023/12/25 04:22:13;;;;;;;6.57;1.07;;;6.80;99.90;5.90;97472;;;;584892;242;24053;-79
2023/12/25 04:24:37;;;;;;;8.23;1.00;;;6.70;99.90;6.00;97458;;;;591963;242;24079;-80
2023/12/25 04:27:05;;;;;;;12.53;1.50;;;6.90;99.90;6.10;97458;;;;592988;242;24065;-79
2023/12/25 04:29:33;;;;;;;1.77;0.87;;;7.00;99.90;6.20;97463;;;;593610;242;24059;-79
2023/12/25 04:32:00;;;;;;;2.30;1.77;;;7.00;99.90;6.20;97474;;;;592866;242;24046;-78
2023/12/25 04:34:28;;;;;;;6.93;1.10;;;7.10;99.90;6.30;97467;;;;593107;239;24075;-80
2023/12/25 04:36:56;;;;;;;1.93;0.67;;;7.10;99.90;6.40;97463;;;;594378;241;24053;-81
2023/12/25 04:39:24;;;;;;;2.20;1.00;;;7.20;99.90;6.30;97471;;;;593270;241;24072;-81
2023/12/25 04:41:53;;;;;;;5.53;1.10;;;7.20;99.90;6.40;97471;;;;593534;241;24115;-80
2023/12/25 04:44:21;;;;;;;7.00;0.40;;;7.20;99.90;6.40;97474;;;;592910;241;24071;-80
2023/12/25 04:46:49;;;;;;;5.77;1.13;;;7.10;99.90;6.30;97464;;;;593315;241;24187;-81
2023/12/25 04:49:17;;;;;;;6.03;1.50;;;7.00;99.90;6.10;97472;;;;593465;241;24063;-79
2023/12/25 04:51:46;;;;;;;9.03;1.90;;;6.70;99.90;6.00;97464;;;;588182;241;45958;-79
2023/12/25 04:54:14;;;;;;;6.90;1.33;;;6.70;99.90;5.90;97468;;;;589048;242;24068;-80
2023/12/25 04:56:42;;;;;;;1.53;0.93;;;6.70;99.90;5.90;97455;;;;593448;242;24060;-79
2023/12/25 04:59:10;;;;;;;2.33;0.30;;;6.70;99.90;6.00;97483;;;;593379;242;24067;-78
2023/12/25 05:01:38;;;;;;;2.67;0.87;;;6.70;99.90;6.00;97485;;;;593416;242;24061;-79
2023/12/25 05:04:06;;;;;;;11.43;0.97;;;6.90;99.90;6.10;97473;;;;593525;242;24051;-77
2023/12/25 05:06:34;;;;;;;0.90;0.57;;;6.90;99.90;6.10;97479;;;;593487;242;24062;-78
2023/12/25 05:09:03;;;;;;;2.10;0.83;;;6.90;99.90;6.10;97479;;;;593427;242;24068;-79
2023/12/25 05:11:30;;;;;;;1.83;0.77;;;6.90;99.90;6.10;97469;;;;593255;242;24120;-80
2023/12/25 05:13:58;;;;;;;5.83;1.40;;;6.90;99.90;6.10;97485;;;;592689;242;24043;-80
2023/12/25 05:16:29;;;;;;;7.80;1.40;;;7.00;99.90;6.10;97468;;;;580192;242;35503;-79
2023/12/25 05:18:54;;;;;;;6.47;1.60;;;6.90;99.90;6.00;97459;;;;560647;252;24142;-80
2023/12/25 05:21:23;;;;;;;5.73;1.13;;;6.70;99.90;5.90;97465;;;;561316;252;24115;-80
2023/12/25 05:23:51;;;;;;;7.77;1.47;;;6.70;99.90;5.80;97467;;;;561325;252;24130;-79
2023/12/25 05:26:20;;;;;;;9.20;1.23;;;6.60;99.90;5.80;97458;;;;560982;252;24154;-80
2023/12/25 05:28:47;;;;;;;2.33;0.83;;;6.60;99.90;5.80;97440;;;;560836;252;24126;-79
2023/12/25 05:31:15;;;;;;;2.87;0.93;;;6.60;99.90;5.70;97458;;;;560981;252;24133;-79
2023/12/25 05:33:44;;;;;;;1.77;0.83;;;6.60;99.90;5.80;97464;;;;560899;252;24111;-78
2023/12/25 05:36:12;;;;;;;1.27;0.63;;;6.60;99.90;5.80;97465;;;;561026;252;24134;-80
2023/12/25 05:38:41;;;;;;;6.50;1.80;;;6.70;99.90;5.80;97449;;;;555638;252;35347;-79
2023/12/25 05:41:09;;;;;;;4.43;1.40;;;6.70;99.90;5.80;97482;;;;560815;252;24547;-78
2023/12/25 05:43:37;;;;;;;7.00;1.50;;;6.70;99.90;5.80;97477;;;;560951;252;24107;-79
2023/12/25 05:46:05;;;;;;;0.87;0.37;;;6.70;99.90;5.80;97468;;;;561146;249;24123;-78
2023/12/25 05:48:34;;;;;;;6.20;0.97;;;6.70;99.90;5.80;97484;;;;562339;251;24114;-79
2023/12/25 05:51:02;;;;;;;2.27;0.43;;;6.70;99.90;5.90;97454;;;;561813;251;24113;-78
2023/12/25 05:53:30;;;;;;;2.17;0.73;;;6.80;99.90;5.90;97470;;;;561829;251;24150;-80
2023/12/25 05:55:58;;;;;;;5.93;0.70;;;6.80;99.90;6.00;97457;;;;561916;251;24119;-80
2023/12/25 05:58:26;;;;;;;4.63;1.57;;;6.80;99.90;6.10;97458;;;;561645;251;24171;-81
2023/12/25 06:00:53;;;;;;;2.90;1.07;;;6.90;99.90;6.10;97458;;;;561770;251;24091;-80
2023/12/25 06:03:21;;;;;;;4.73;0.93;;;7.00;99.90;6.10;97471;;;;561329;251;24136;-79
2023/12/25 06:05:49;;;;;;;9.60;0.90;;;7.00;99.90;6.10;97471;;;;561586;252;24130;-79
2023/12/25 06:08:17;;;;;;;0.60;0.60;;;6.90;99.90;6.00;97470;;;;572129;249;24128;-80
2023/12/25 06:10:45;;;;;;;1.37;0.63;;;6.90;99.90;6.10;97473;;;;561574;252;24172;-78
2023/12/25 06:13:13;;;;;;;7.80;1.23;;;7.00;99.90;6.20;97472;;;;561535;252;24127;-80
2023/12/25 06:15:41;;;;;;;3.07;0.80;;;7.00;99.90;6.10;97466;;;;561519;252;24112;-79
2023/12/25 06:18:09;;;;;;;1.30;0.67;;;7.00;99.90;6.10;97461;;;;561072;252;24112;-78
2023/12/25 06:20:37;;;;;;;7.15;1.92;;;6.90;99.90;6.10;97462;;;;556610;252;35521;-80
2023/12/25 06:23:05;;;;;;;7.20;1.17;;;7.00;99.90;6.10;97464;;;;561396;252;24137;-79
2023/12/25 06:25:33;;;;;;;2.93;0.80;;;7.00;99.90;6.10;97460;;;;561237;252;24099;-79
2023/12/25 06:28:01;;;;;;;6.50;1.03;;;7.00;99.90;6.10;97460;;;;560351;252;24154;-79
2023/12/25 06:30:32;;;;;;;8.83;2.17;;;6.90;99.90;6.00;97429;;;;556453;252;35437;-80
2023/12/25 06:32:58;;;;;;;8.63;1.87;;;6.90;99.90;6.00;97446;;;;560485;252;24150;-79
2023/12/25 06:35:27;;;;;;;5.23;1.13;;;6.90;99.90;6.00;97478;;;;561282;252;24110;-79
2023/12/25 06:37:54;;;;;;;3.43;1.13;;;6.90;99.90;6.10;97478;;;;561195;252;24097;-79
2023/12/25 06:40:22;;;;;;;10.60;1.70;;;6.90;99.90;6.10;97492;;;;561245;252;24139;-78
2023/12/25 06:42:50;;;;;;;7.23;1.07;;;6.90;99.90;6.10;97495;;;;561279;252;24131;-78
2023/12/25 06:45:18;;;;;;;8.47;1.43;;;7.00;99.90;6.20;97497;;;;560758;252;24116;-80
2023/12/25 06:47:47;;;;;;;0.77;0.73;;;7.10;99.90;6.20;97471;;;;561312;252;24115;-80
2023/12/25 06:50:14;;;;;;;5.50;1.53;;;7.00;99.90;6.30;97503;;;;561230;252;24106;-79
2023/12/25 06:52:43;;;;;;;3.93;0.50;;;7.10;99.90;6.30;97485;;;;561292;252;24127;-80
2023/12/25 06:55:10;;;;;;;0.20;0.20;;;7.10;99.90;6.30;97478;;;;560760;252;24119;-79
2023/12/25 06:57:38;;;;;;;0.40;0.20;;;7.10;99.90;6.30;97497;;;;560611;250;24199;-80
2023/12/25 07:00:08;;;;;;;0.50;0.50;;;7.20;99.90;6.40;97488;;;;566950;251;24126;-79
2023/12/25 07:02:35;;;;;;;6.33;0.70;;;7.20;99.90;6.40;97509;;;;573160;251;24171;-78
2023/12/25 07:05:04;;;;;;;7.90;1.20;;;7.20;99.90;6.40;97482;;;;562082;251;24137;-78
2023/12/25 07:07:31;;;;;;;9.50;1.23;;;7.20;99.90;6.50;97504;;;;565919;251;24148;-80
2023/12/25 07:09:58;;;;;;;1.00;0.37;;;7.30;99.90;6.50;97527;;;;561504;251;24107;-79
2023/12/25 07:12:27;;;;;;;2.87;1.50;;;7.30;99.90;6.50;97526;;;;561477;251;24126;-79
2023/12/25 07:14:55;;;;;;;0.20;0.20;;;7.30;99.90;6.50;97531;;;;561341;251;24102;-79
2023/12/25 07:17:24;;;;;;;0.50;0.50;;;7.40;99.90;6.50;97515;;;;561275;252;24117;-79
2023/12/25 07:19:52;;;;;;;5.70;1.37;;;7.30;99.90;6.50;97530;;;;561136;252;24112;-78
2023/12/25 07:22:19;;;;;;;0.43;0.43;;;7.40;99.90;6.50;97545;;;;561320;252;24120;-79
2023/12/25 07:24:47;;;;;;;1.30;0.53;;;7.30;99.90;6.50;97543;;;;561449;252;24119;-79
2023/12/25 07:27:15;;;;;;;5.33;1.20;;;7.40;99.90;6.50;97544;;;;561927;252;24181;-77
2023/12/25 07:29:44;;;;;;;2.07;1.10;;;7.30;99.90;6.50;97537;;;;561852;252;24119;-79
2023/12/25 07:32:12;;;;;;;4.27;1.33;;;7.30;99.90;6.40;97556;;;;561673;252;24137;-81
2023/12/25 07:34:40;;;;;;;1.43;0.87;;;7.30;99.90;6.40;97531;;;;561762;252;24126;-77
2023/12/25 07:37:08;;;;;;;9.07;1.50;;;7.30;99.90;6.40;97522;;;;561221;252;24127;-79
2023/12/25 07:39:36;;;;;;;4.33;1.47;;;7.30;99.90;6.40;97543;;;;561284;252;24099;-78
2023/12/25 07:42:04;;;;;;;9.80;1.27;;;7.20;99.90;6.40;97548;;;;561034;252;24143;-77
2023/12/25 07:44:32;;;;;;;8.10;1.33;;;7.20;99.90;6.40;97539;;;;571402;251;24452;-77
2023/12/25 07:47:01;;;;;;;5.87;1.03;;;7.30;99.90;6.50;97555;;;;561079;252;24122;-78
2023/12/25 07:49:29;;;;;;;3.83;1.77;;;7.30;99.90;6.60;97571;;;;560935;252;24121;-80
2023/12/25 07:51:57;;;;;;;1.77;0.83;;;7.30;99.90;6.60;97549;;;;561047;252;24116;-77
2023/12/25 07:54:24;;;;;;;4.13;0.70;;;7.40;99.90;6.60;97561;;;;560474;252;24163;-78
2023/12/25 07:56:52;;;;;;;2.00;1.03;;;7.40;99.90;6.50;97562;;;;561264;252;24155;-77
2023/12/25 07:59:21;;;;;;;6.07;1.93;;;7.40;99.90;6.50;97569;;;;560963;252;24117;-78
2023/12/25 08:01:49;;;;;;;2.20;1.37;;;7.40;99.90;6.60;97559;;;;562529;252;24116;-76
2023/12/25 08:04:18;;;;;;;4.80;1.33;;;7.40;99.90;6.60;97565;;;;565332;252;24111;-78
2023/12/25 08:06:45;;;;;;;7.00;1.40;;;7.40;99.90;6.60;97576;;;;560423;252;24111;-78
2023/12/25 08:09:14;;;;;;;9.03;2.17;;;7.40;99.90;6.60;97599;;;;561319;249;24167;-78
2023/12/25 08:11:42;;;;;;;5.70;1.30;;;7.40;99.90;6.60;97574;;;;562276;251;24117;-77
2023/12/25 08:14:10;;;;;;;3.03;0.90;;;7.40;99.90;6.50;97572;;;;561726;251;24127;-78
2023/12/25 08:16:38;;;;;;;1.97;0.93;;;7.00;99.90;6.50;97590;;;;561774;251;24214;-79
2023/12/25 08:19:06;;;;;;;5.47;1.90;;;7.40;99.90;6.50;97573;;;;561581;251;24133;-79
2023/12/25 08:21:34;;;;;;;9.87;1.37;;;7.30;99.90;6.50;97593;;;;561586;251;24113;-77
2023/12/25 08:24:02;;;;;;;3.70;1.80;;;7.30;99.90;6.50;97596;;;;561431;251;24140;-79
2023/12/25 08:26:30;;;;;;;3.57;0.90;;;7.30;99.90;6.50;97592;;;;561323;251;24148;-77
2023/12/25 08:28:58;;;;;;;7.67;1.80;;;7.30;99.90;6.50;97608;;;;561605;252;24142;-78
2023/12/25 08:31:26;;;;;;;2.93;0.73;;;7.30;99.90;6.50;97622;;;;560627;252;24398;-78
2023/12/25 08:33:55;;;;;;;16.37;3.30;;;7.40;99.90;6.50;97608;;;;556449;252;35421;-79
2023/12/25 08:36:22;;;;;;;6.37;1.67;;;7.40;99.90;6.60;97597;;;;561156;252;24115;-79
2023/12/25 08:38:51;;;;;;;9.13;2.10;;;7.40;99.90;6.60;97606;;;;556467;252;35448;-79
2023/12/25 08:41:19;;;;;;;6.83;2.17;;;7.40;99.90;6.60;97600;;;;561203;252;24135;-78
2023/12/25 08:43:47;;;;;;;12.17;2.00;;;7.50;99.90;6.60;97623;;;;561160;252;24115;-79
2023/12/25 08:46:15;;;;;;;6.00;1.40;;;7.50;99.90;6.70;97617;;;;561096;252;24123;-79
2023/12/25 08:48:43;;;;;;;2.67;0.93;;;7.50;99.90;6.70;97607;;;;560830;252;24119;-78
2023/12/25 08:51:11;;;;;;;2.70;0.60;;;7.60;99.90;6.80;97615;;;;565336;246;24105;-77
2023/12/25 08:53:39;;;;;;;6.57;1.47;;;7.60;99.90;6.80;97603;;;;570132;251;24111;-78
2023/12/25 08:56:07;;;;;;;9.13;1.50;;;7.60;99.90;6.90;97605;;;;579029;246;24068;-78
2023/12/25 08:58:35;;;;;;;14.63;2.17;;;7.70;99.90;7.00;97619;;;;568418;246;24059;-79
2023/12/25 09:01:03;;;;;;;2.77;1.50;;;7.80;99.90;7.00;97623;;;;574840;246;24067;-79
2023/12/25 09:03:32;;;;;;;0.83;0.50;;;7.80;99.90;7.00;97635;;;;571181;249;24049;-79
2023/12/25 09:06:00;;;;;;;4.80;1.40;;;7.80;99.90;7.10;97620;;;;578205;246;24067;-80
2023/12/25 09:08:27;;;;;;;1.67;1.00;;;7.90;99.90;7.10;97632;;;;575531;246;24089;-79
2023/12/25 09:10:55;;;;;;;4.07;1.73;;;7.90;99.90;7.10;97619;;;;566260;249;24102;-79
2023/12/25 09:13:23;;;;;;;5.10;0.93;;;7.90;99.90;7.10;97612;;;;561586;251;24125;-78
2023/12/25 09:15:52;;;;;;;8.37;1.67;;;7.90;99.90;7.10;97622;;;;582501;246;24091;-78
2023/12/25 09:18:20;;;;;;;5.80;1.77;;;7.90;99.90;7.20;97635;;;;562493;252;24105;-79
2023/12/25 09:20:48;;;;;;;3.53;1.80;;;8.00;99.90;7.30;97642;;;;571867;249;24110;-79
2023/12/25 09:23:17;;;;;;;5.17;2.30;;;8.00;99.90;7.40;97638;;;;572870;250;24173;-78
2023/12/25 09:25:44;;;;;;;7.87;1.80;;;8.20;99.90;7.50;97632;;;;567783;248;24098;-79
2023/12/25 09:28:12;;;;;;;3.40;1.57;;;8.20;99.90;7.50;97631;;;;562454;251;24097;-78
2023/12/25 09:30:40;;;;;;;1.90;1.13;;;8.30;99.90;7.60;97649;;;;573706;247;24054;-77
2023/12/25 09:33:09;;;;;;;2.37;1.00;;;8.50;99.90;7.70;97645;;;;569213;251;24130;-78
2023/12/25 09:35:37;;;;;;;4.10;2.20;;;8.50;99.90;7.70;97659;;;;582987;246;24087;-79
2023/12/25 09:38:04;;;;;;;6.30;1.47;;;8.50;99.90;7.70;97643;;;;566879;249;24090;-79
2023/12/25 09:40:35;;;;;;;3.60;1.10;;;8.50;99.90;7.60;97646;;;;573920;246;24167;-81
2023/12/25 09:43:04;;;;;;;2.17;1.53;;;8.40;99.90;7.50;97659;;;;572443;246;24110;-80
2023/12/25 09:45:35;;;;;;;7.17;2.10;;;8.20;99.90;7.40;97648;;;;562401;251;25168;-80
2023/12/25 09:48:03;;;;;;;6.23;1.47;;;8.20;99.90;7.30;97662;;;;573191;246;24119;-81
2023/12/25 09:50:31;;;;;;;2.53;1.37;;;8.20;99.90;7.20;97658;;;;568090;249;24109;-80
2023/12/25 09:52:59;;;;;;;1.90;0.90;;;7.90;99.90;7.10;97653;;;;568684;249;24065;-81
2023/12/25 09:55:27;;;;;;;3.93;0.97;;;7.90;99.90;7.10;97639;;;;565239;247;24077;-81
2023/12/25 09:57:55;;;;;;;0.80;0.80;;;7.90;99.90;7.10;97658;;;;590551;243;24024;-82
2023/12/25 10:00:27;;;;;;;3.60;1.43;;;7.90;99.90;7.10;97646;;;;574110;247;24137;-81
2023/12/25 10:02:51;;;;;;;1.03;0.73;;;7.80;99.90;7.00;97664;;;;574679;242;24035;-81
2023/12/25 10:05:19;;;;;;;7.73;2.03;;;7.80;99.90;7.00;97673;;;;573921;244;35146;-80
2023/12/25 10:07:47;;;;;;;5.70;1.30;;;7.80;99.90;7.00;97668;;;;583296;244;24042;-81
2023/12/25 10:10:15;;;;;;;6.90;1.57;;;7.80;99.90;7.00;97669;;;;563072;249;24121;-79
2023/12/25 10:12:43;;;;;;;8.60;2.40;;;7.80;99.90;7.00;97657;;;;568645;247;35295;-81
2023/12/25 10:15:10;;;;;;;1.83;0.77;;;7.80;99.90;6.90;97655;;;;573657;247;24095;-81
2023/12/25 10:17:38;;;;;;;4.93;0.93;;;7.80;99.90;6.90;97655;;;;566174;249;24118;-80
2023/12/25 10:20:10;;;;;;;6.90;1.27;;;7.70;99.90;6.90;97669;;;;573825;247;24080;-79
2023/12/25 10:22:40;;;;;;;7.67;1.77;;;7.70;99.90;6.80;97658;;;;573179;247;24166;-76
2023/12/25 10:25:08;;;;;;;8.07;2.00;;;7.60;99.90;6.70;97646;;;;564416;247;38300;-82
2023/12/25 10:27:38;;;;;;;6.10;1.47;;;7.60;99.90;6.70;97659;;;;567155;249;24148;-80
2023/12/25 10:30:18;;;;;;;7.80;2.37;;;7.50;99.90;6.60;97666;;;;567373;246;35311;-80
2023/12/25 10:32:47;;;;;;;11.60;1.90;;;7.40;99.90;6.60;97626;;;;577934;244;24059;-81
2023/12/25 10:35:22;;;;;;;4.10;1.77;;;7.40;99.90;6.50;97632;;;;563497;251;24180;-81
2023/12/25 10:37:48;;;;;;;4.17;1.37;;;7.40;99.90;6.50;97667;;;;568195;249;24188;-80
2023/12/25 10:40:25;;;;;;;8.80;1.20;;;7.30;99.90;6.60;97648;;;;582368;245;24086;-80
2023/12/25 10:42:53;;;;;;;10.97;1.63;;;7.30;99.90;6.70;97680;;;;570916;250;24105;-80
2023/12/25 10:45:23;;;;;;;4.20;1.60;;;7.40;99.90;6.80;97658;;;;562848;250;24105;-80
2023/12/25 10:47:54;;;;;;;1.30;0.67;;;7.60;99.90;7.00;97676;;;;565974;250;24150;-79
2023/12/25 10:50:26;;;;;;;10.30;2.10;;;7.90;99.90;7.10;97700;;;;576889;245;35045;-79
2023/12/25 10:52:51;;;;;;;6.20;2.00;;;7.80;99.90;7.30;97702;;;;562709;251;24121;-79
2023/12/25 10:55:37;;;;;;;5.23;1.53;;;8.00;99.90;7.40;97685;;;;565924;251;24095;-80
2023/12/25 10:58:13;;;;;;;18.97;2.60;;;8.20;99.90;7.60;97671;;;;566013;251;24106;-80
2023/12/25 11:00:45;;;;;;;1.77;0.90;;;8.40;99.90;7.60;97677;;;;566014;251;24099;-81
2023/12/25 11:03:14;;;;;;;1.70;1.00;;;8.40;99.90;7.60;97667;;;;562664;251;24121;-80
2023/12/25 11:05:41;;;;;;;7.33;1.43;;;8.40;99.90;7.60;97700;;;;566013;250;24106;-80
2023/12/25 11:08:09;;;;;;;2.13;0.83;;;8.40;99.90;7.70;97703;;;;574614;250;24121;-80
2023/12/25 11:10:37;;;;;;;8.20;1.90;;;8.50;99.90;7.70;97692;;;;565812;251;24089;-80
2023/12/25 11:13:06;;;;;;;5.27;1.33;;;8.50;99.90;7.80;97698;;;;570369;251;24094;-80
2023/12/25 11:15:36;;;;;;;5.57;2.07;;;8.60;99.90;7.80;97707;;;;574368;250;24093;-80
2023/12/25 11:18:01;;;;;;;7.90;1.10;;;8.60;99.90;7.70;97709;;;;569354;251;24161;-80
2023/12/25 11:20:29;;;;;;;2.37;1.07;;;8.50;99.90;7.60;97701;;;;565835;251;24084;-80
2023/12/25 11:22:57;;;;;;;6.50;1.60;;;8.40;99.90;7.50;97719;;;;565283;251;24107;-81
2023/12/25 11:25:27;;;;;;;6.83;1.07;;;8.30;99.90;7.50;97729;;;;570391;251;24101;-80
2023/12/25 11:27:54;;;;;;;2.00;1.17;;;8.20;99.90;7.40;97734;;;;565728;251;24102;-81
2023/12/25 11:30:27;;;;;;;0.63;0.63;;;8.20;99.90;7.30;97749;;;;568820;251;24238;-79
2023/12/25 11:32:52;;;;;;;2.97;1.53;;;8.10;99.90;7.20;97744;;;;574281;249;24134;-79
2023/12/25 11:35:33;;;;;;;8.13;1.70;;;8.00;99.90;7.20;97750;;;;566220;251;24147;-81
2023/12/25 11:38:19;;;;;;;0.83;0.83;;;8.00;99.90;7.20;97734;;;;565306;251;24113;-80